sensor_id;sensor_type;location;lat;lon;timestamp;pressure;altitude;pressure_sealevel;temperature;humidity
71424;BME280;59240;51.370;-0.486;2023-04-09T00:00:31;102436.81;;;8.21;67.58
71424;BME280;59240;51.370;-0.486;2023-04-09T00:02:58;102391.53;;;8.02;67.35
71424;BME280;59240;51.370;-0.486;2023-04-09T00:05:24;102348.75;;;7.74;67.52
71424;BME280;59240;51.370;-0.486;2023-04-09T00:07:51;102394.97;;;7.98;67.98
71424;BME280;59240;51.370;-0.486;2023-04-09T00:10:18;102392.41;;;8.03;67.82
71424;BME280;59240;51.370;-0.486;2023-04-09T00:12:44;102371.47;;;7.89;67.71
71424;BME280;59240;51.370;-0.486;2023-04-09T00:15:11;102390.66;;;8.00;68.14
71424;BME280;59240;51.370;-0.486;2023-04-09T00:17:53;102359.31;;;7.85;68.26
71424;BME280;59240;51.370;-0.486;2023-04-09T00:20:21;102367.16;;;7.89;68.32
71424;BME280;59240;51.370;-0.486;2023-04-09T00:22:48;102350.66;;;7.86;68.41
71424;BME280;59240;51.370;-0.486;2023-04-09T00:25:15;102356.84;;;7.95;68.38
71424;BME280;59240;51.370;-0.486;2023-04-09T00:27:42;102317.50;;;7.63;68.94
71424;BME280;59240;51.370;-0.486;2023-04-09T00:30:09;102404.69;;;8.11;69.10
71424;BME280;59240;51.370;-0.486;2023-04-09T00:32:37;102327.00;;;7.64;69.73
71424;BME280;59240;51.370;-0.486;2023-04-09T00:35:04;102317.50;;;7.63;69.19
71424;BME280;59240;51.370;-0.486;2023-04-09T00:37:30;102322.69;;;7.65;69.30
71424;BME280;59240;51.370;-0.486;2023-04-09T00:39:59;102402.97;;;8.13;69.93
71424;BME280;59240;51.370;-0.486;2023-04-09T00:42:26;102345.38;;;7.80;69.80
71424;BME280;59240;51.370;-0.486;2023-04-09T00:44:57;102400.38;;;8.13;70.13
71424;BME280;59240;51.370;-0.486;2023-04-09T00:47:26;102350.69;;;7.89;70.12
71424;BME280;59240;51.370;-0.486;2023-04-09T00:49:56;102368.13;;;7.96;69.87
71424;BME280;59240;51.370;-0.486;2023-04-09T00:52:23;102350.69;;;7.87;70.43
71424;BME280;59240;51.370;-0.486;2023-04-09T00:54:50;102290.59;;;7.57;69.80
71424;BME280;59240;51.370;-0.486;2023-04-09T00:57:20;102316.84;;;7.78;70.36
71424;BME280;59240;51.370;-0.486;2023-04-09T00:59:47;102322.94;;;7.82;70.69
71424;BME280;59240;51.370;-0.486;2023-04-09T01:02:20;102371.78;;;8.10;70.42
71424;BME280;59240;51.370;-0.486;2023-04-09T01:04:47;102349.97;;;7.96;70.48
71424;BME280;59240;51.370;-0.486;2023-04-09T01:10:01;102345.56;;;7.92;72.12
71424;BME280;59240;51.370;-0.486;2023-04-09T01:12:35;102284.56;;;7.59;71.27
71424;BME280;59240;51.370;-0.486;2023-04-09T01:15:14;102322.94;;;7.82;72.41
71424;BME280;59240;51.370;-0.486;2023-04-09T01:17:49;102318.56;;;7.79;72.98
71424;BME280;59240;51.370;-0.486;2023-04-09T01:20:34;102361.25;;;8.01;73.22
71424;BME280;59240;51.370;-0.486;2023-04-09T01:23:36;102366.44;;;8.01;73.51
71424;BME280;59240;51.370;-0.486;2023-04-09T01:26:35;102341.16;;;7.85;72.74
71424;BME280;59240;51.370;-0.486;2023-04-09T01:29:04;102306.28;;;7.66;71.47
71424;BME280;59240;51.370;-0.486;2023-04-09T01:31:37;102349.09;;;7.97;72.49
71424;BME280;59240;51.370;-0.486;2023-04-09T01:34:05;102338.63;;;7.91;71.92
71424;BME280;59240;51.370;-0.486;2023-04-09T01:36:34;102302.91;;;7.73;72.35
71424;BME280;59240;51.370;-0.486;2023-04-09T01:39:02;102337.69;;;7.86;72.36
71424;BME280;59240;51.370;-0.486;2023-04-09T01:41:30;102277.56;;;7.52;72.69
71424;BME280;59240;51.370;-0.486;2023-04-09T01:43:59;102345.59;;;7.95;72.67
71424;BME280;59240;51.370;-0.486;2023-04-09T01:46:31;102308.97;;;7.74;72.60
71424;BME280;59240;51.370;-0.486;2023-04-09T01:48:59;102350.78;;;7.95;73.37
71424;BME280;59240;51.370;-0.486;2023-04-09T01:51:27;102318.56;;;7.78;72.67
71424;BME280;59240;51.370;-0.486;2023-04-09T01:53:55;102334.31;;;7.91;72.85
71424;BME280;59240;51.370;-0.486;2023-04-09T01:56:22;102302.13;;;7.76;73.08
71424;BME280;59240;51.370;-0.486;2023-04-09T01:58:48;102301.97;;;7.68;73.06
71424;BME280;59240;51.370;-0.486;2023-04-09T02:01:45;102286.38;;;7.63;75.88
71424;BME280;59240;51.370;-0.486;2023-04-09T02:04:22;102271.59;;;7.58;74.04
71424;BME280;59240;51.370;-0.486;2023-04-09T02:09:41;102323.84;;;7.84;73.05
71424;BME280;59240;51.370;-0.486;2023-04-09T02:12:13;102302.94;;;7.75;74.28
71424;BME280;59240;51.370;-0.486;2023-04-09T02:14:45;102321.34;;;7.90;74.12
71424;BME280;59240;51.370;-0.486;2023-04-09T02:17:12;102279.47;;;7.64;73.63
71424;BME280;59240;51.370;-0.486;2023-04-09T02:19:48;102329.16;;;7.93;74.35
71424;BME280;59240;51.370;-0.486;2023-04-09T02:22:15;102249.78;;;7.44;74.15
71424;BME280;59240;51.370;-0.486;2023-04-09T02:24:42;102242.81;;;7.41;74.09
71424;BME280;59240;51.370;-0.486;2023-04-09T02:27:09;102297.72;;;7.73;73.85
71424;BME280;59240;51.370;-0.486;2023-04-09T02:29:38;102276.84;;;7.62;74.61
71424;BME280;59240;51.370;-0.486;2023-04-09T02:32:05;102259.38;;;7.49;74.02
71424;BME280;59240;51.370;-0.486;2023-04-09T02:34:32;102283.00;;;7.71;74.76
71424;BME280;59240;51.370;-0.486;2023-04-09T02:37:00;102282.06;;;7.65;74.32
71424;BME280;59240;51.370;-0.486;2023-04-09T02:39:27;102268.97;;;7.56;74.29
71424;BME280;59240;51.370;-0.486;2023-04-09T02:41:56;102282.91;;;7.64;74.04
71424;BME280;59240;51.370;-0.486;2023-04-09T02:44:23;102293.41;;;7.74;74.58
71424;BME280;59240;51.370;-0.486;2023-04-09T02:46:50;102312.53;;;7.82;74.86
71424;BME280;59240;51.370;-0.486;2023-04-09T02:49:17;102255.03;;;7.48;74.28
71424;BME280;59240;51.370;-0.486;2023-04-09T02:51:44;102263.69;;;7.50;74.50
71424;BME280;59240;51.370;-0.486;2023-04-09T02:54:11;102241.06;;;7.40;74.80
71424;BME280;59240;51.370;-0.486;2023-04-09T02:56:38;102262.84;;;7.50;75.37
71424;BME280;59240;51.370;-0.486;2023-04-09T02:59:04;102274.16;;;7.56;74.77
71424;BME280;59240;51.370;-0.486;2023-04-09T03:01:31;102265.47;;;7.54;75.06
71424;BME280;59240;51.370;-0.486;2023-04-09T03:03:59;102255.88;;;7.47;75.34
71424;BME280;59240;51.370;-0.486;2023-04-09T03:06:28;102190.53;;;7.10;75.59
71424;BME280;59240;51.370;-0.486;2023-04-09T03:08:54;102297.81;;;7.78;75.32
71424;BME280;59240;51.370;-0.486;2023-04-09T03:11:21;102201.88;;;7.20;75.38
71424;BME280;59240;51.370;-0.486;2023-04-09T03:13:49;102235.88;;;7.40;74.99
71424;BME280;59240;51.370;-0.486;2023-04-09T03:16:16;102261.13;;;7.50;75.31
71424;BME280;59240;51.370;-0.486;2023-04-09T03:18:43;102287.19;;;7.61;75.03
71424;BME280;59240;51.370;-0.486;2023-04-09T03:21:09;102247.97;;;7.38;75.09
71424;BME280;59240;51.370;-0.486;2023-04-09T03:23:40;102244.38;;;7.30;75.14
71424;BME280;59240;51.370;-0.486;2023-04-09T03:26:06;102228.66;;;7.19;75.30
71424;BME280;59240;51.370;-0.486;2023-04-09T03:28:33;102232.09;;;7.18;75.56
71424;BME280;59240;51.370;-0.486;2023-04-09T03:31:00;102246.03;;;7.25;75.16
71424;BME280;59240;51.370;-0.486;2023-04-09T03:33:27;102269.50;;;7.34;75.42
71424;BME280;59240;51.370;-0.486;2023-04-09T03:35:54;102215.47;;;7.04;75.75
71424;BME280;59240;51.370;-0.486;2023-04-09T03:38:20;102251.19;;;7.22;75.43
71424;BME280;59240;51.370;-0.486;2023-04-09T03:40:47;102239.78;;;7.12;75.27
71424;BME280;59240;51.370;-0.486;2023-04-09T03:43:14;102207.59;;;6.96;75.90
71424;BME280;59240;51.370;-0.486;2023-04-09T03:45:41;102231.97;;;7.09;75.01
71424;BME280;59240;51.370;-0.486;2023-04-09T03:48:08;102290.28;;;7.37;75.48
71424;BME280;59240;51.370;-0.486;2023-04-09T03:50:39;102238.81;;;7.05;76.28
71424;BME280;59240;51.370;-0.486;2023-04-09T03:53:06;102268.50;;;7.26;75.65
71424;BME280;59240;51.370;-0.486;2023-04-09T03:55:33;102251.97;;;7.18;75.73
71424;BME280;59240;51.370;-0.486;2023-04-09T03:58:01;102265.91;;;7.24;76.23
71424;BME280;59240;51.370;-0.486;2023-04-09T04:00:27;102244.19;;;7.18;75.96
71424;BME280;59240;51.370;-0.486;2023-04-09T04:02:54;102212.81;;;6.99;76.07
71424;BME280;59240;51.370;-0.486;2023-04-09T04:05:23;102275.69;;;7.42;76.30
71424;BME280;59240;51.370;-0.486;2023-04-09T04:07:51;102225.09;;;7.12;76.56
71424;BME280;59240;51.370;-0.486;2023-04-09T04:10:18;102284.47;;;7.53;77.08
71424;BME280;59240;51.370;-0.486;2023-04-09T04:13:05;102287.22;;;7.62;78.74
71424;BME280;59240;51.370;-0.486;2023-04-09T04:16:00;102201.84;;;7.14;76.33
71424;BME280;59240;51.370;-0.486;2023-04-09T04:18:27;102247.22;;;7.47;76.07
71424;BME280;59240;51.370;-0.486;2023-04-09T04:20:54;102243.75;;;7.48;76.60
71424;BME280;59240;51.370;-0.486;2023-04-09T04:23:20;102246.44;;;7.52;76.55
71424;BME280;59240;51.370;-0.486;2023-04-09T04:25:47;102223.72;;;7.34;76.64
71424;BME280;59240;51.370;-0.486;2023-04-09T04:28:14;102256.06;;;7.61;76.81
71424;BME280;59240;51.370;-0.486;2023-04-09T04:30:41;102186.31;;;7.17;76.66
71424;BME280;59240;51.370;-0.486;2023-04-09T04:33:19;102188.13;;;7.24;77.00
71424;BME280;59240;51.370;-0.486;2023-04-09T04:35:46;102245.63;;;7.56;76.91
71424;BME280;59240;51.370;-0.486;2023-04-09T04:38:14;102257.88;;;7.66;77.02
71424;BME280;59240;51.370;-0.486;2023-04-09T04:40:41;102236.94;;;7.53;76.71
71424;BME280;59240;51.370;-0.486;2023-04-09T04:43:09;102244.78;;;7.57;76.78
71424;BME280;59240;51.370;-0.486;2023-04-09T04:45:38;102192.56;;;7.33;76.97
71424;BME280;59240;51.370;-0.486;2023-04-09T04:48:07;102262.28;;;7.74;76.88
71424;BME280;59240;51.370;-0.486;2023-04-09T04:50:35;102200.31;;;7.30;76.57
71424;BME280;59240;51.370;-0.486;2023-04-09T04:53:02;102231.75;;;7.53;76.67
71424;BME280;59240;51.370;-0.486;2023-04-09T04:55:33;102258.63;;;7.59;76.84
71424;BME280;59240;51.370;-0.486;2023-04-09T04:58:02;102250.69;;;7.47;76.25
71424;BME280;59240;51.370;-0.486;2023-04-09T05:00:30;102223.59;;;7.27;76.84
71424;BME280;59240;51.370;-0.486;2023-04-09T05:03:00;102232.22;;;7.26;76.44
71424;BME280;59240;51.370;-0.486;2023-04-09T05:05:29;102197.22;;;6.96;75.58
71424;BME280;59240;51.370;-0.486;2023-04-09T05:08:00;102149.22;;;6.64;76.00
71424;BME280;59240;51.370;-0.486;2023-04-09T05:10:44;102163.88;;;6.62;75.79
71424;BME280;59240;51.370;-0.486;2023-04-09T05:13:12;102171.63;;;6.62;75.90
71424;BME280;59240;51.370;-0.486;2023-04-09T05:15:41;102218.59;;;6.83;75.87
71424;BME280;59240;51.370;-0.486;2023-04-09T05:18:08;102184.50;;;6.58;76.15
71424;BME280;59240;51.370;-0.486;2023-04-09T05:20:38;102174.00;;;6.49;76.16
71424;BME280;59240;51.370;-0.486;2023-04-09T05:23:07;102175.75;;;6.50;75.89
71424;BME280;59240;51.370;-0.486;2023-04-09T05:25:38;102186.09;;;6.50;75.72
71424;BME280;59240;51.370;-0.486;2023-04-09T05:28:10;102162.56;;;6.35;76.00
71424;BME280;59240;51.370;-0.486;2023-04-09T05:30:37;102215.75;;;6.66;76.05
71424;BME280;59240;51.370;-0.486;2023-04-09T05:33:03;102169.44;;;6.33;75.98
71424;BME280;59240;51.370;-0.486;2023-04-09T05:35:30;102152.78;;;6.19;76.51
71424;BME280;59240;51.370;-0.486;2023-04-09T05:38:00;102219.03;;;6.57;76.63
71424;BME280;59240;51.370;-0.486;2023-04-09T05:40:27;102166.72;;;6.27;76.54
71424;BME280;59240;51.370;-0.486;2023-04-09T05:42:54;102247.78;;;6.73;75.92
71424;BME280;59240;51.370;-0.486;2023-04-09T05:45:24;102220.69;;;6.52;77.21
71424;BME280;59240;51.370;-0.486;2023-04-09T05:47:54;102216.31;;;6.51;77.23
71424;BME280;59240;51.370;-0.486;2023-04-09T05:50:21;102210.25;;;6.49;76.58
71424;BME280;59240;51.370;-0.486;2023-04-09T05:52:48;102204.22;;;6.50;76.81
71424;BME280;59240;51.370;-0.486;2023-04-09T05:55:22;102219.13;;;6.62;77.42
71424;BME280;59240;51.370;-0.486;2023-04-09T05:57:57;102149.38;;;6.23;76.94
71424;BME280;59240;51.370;-0.486;2023-04-09T06:00:26;102172.94;;;6.38;77.44
71424;BME280;59240;51.370;-0.486;2023-04-09T06:03:08;102182.66;;;6.51;77.81
71424;BME280;59240;51.370;-0.486;2023-04-09T06:05:38;102194.97;;;6.65;77.34
71424;BME280;59240;51.370;-0.486;2023-04-09T06:08:05;102156.69;;;6.45;77.88
71424;BME280;59240;51.370;-0.486;2023-04-09T06:10:37;102185.56;;;6.68;77.88
71424;BME280;59240;51.370;-0.486;2023-04-09T06:13:06;102253.69;;;7.16;78.74
71424;BME280;59240;51.370;-0.486;2023-04-09T06:15:37;102159.66;;;6.68;78.48
71424;BME280;59240;51.370;-0.486;2023-04-09T06:18:05;102193.88;;;7.03;78.30
71424;BME280;59240;51.370;-0.486;2023-04-09T06:20:32;102220.13;;;7.25;78.81
71424;BME280;59240;51.370;-0.486;2023-04-09T06:22:59;102200.09;;;7.15;79.08
71424;BME280;59240;51.370;-0.486;2023-04-09T06:25:36;102178.47;;;7.12;79.27
71424;BME280;59240;51.370;-0.486;2023-04-09T06:28:02;102208.19;;;7.37;79.51
71424;BME280;59240;51.370;-0.486;2023-04-09T06:30:29;102181.34;;;7.34;79.37
71424;BME280;59240;51.370;-0.486;2023-04-09T06:32:57;102231.22;;;7.77;79.35
71424;BME280;59240;51.370;-0.486;2023-04-09T06:35:24;102224.41;;;7.85;79.08
71424;BME280;59240;51.370;-0.486;2023-04-09T06:50:37;102206.03;;;8.44;80.48
71424;BME280;59240;51.370;-0.486;2023-04-09T06:53:30;102188.72;;;8.43;79.53
71424;BME280;59240;51.370;-0.486;2023-04-09T06:55:58;102140.00;;;8.17;79.30
71424;BME280;59240;51.370;-0.486;2023-04-09T06:58:27;102220.13;;;8.70;79.09
71424;BME280;59240;51.370;-0.486;2023-04-09T07:01:12;102141.84;;;8.34;79.41
71424;BME280;59240;51.370;-0.486;2023-04-09T07:07:03;102145.53;;;8.54;78.17
71424;BME280;59240;51.370;-0.486;2023-04-09T07:09:30;102162.97;;;8.67;78.62
71424;BME280;59240;51.370;-0.486;2023-04-09T07:11:58;102201.19;;;8.84;78.72
71424;BME280;59240;51.370;-0.486;2023-04-09T07:14:25;102173.38;;;8.70;79.37
71424;BME280;59240;51.370;-0.486;2023-04-09T07:16:51;102234.25;;;9.03;79.15
71424;BME280;59240;51.370;-0.486;2023-04-09T07:19:23;102216.00;;;8.92;78.97
71424;BME280;59240;51.370;-0.486;2023-04-09T07:21:52;102216.06;;;9.04;79.21
71424;BME280;59240;51.370;-0.486;2023-04-09T07:24:22;102164.75;;;8.76;78.44
71424;BME280;59240;51.370;-0.486;2023-04-09T07:26:49;102151.75;;;8.74;77.82
71424;BME280;59240;51.370;-0.486;2023-04-09T07:29:18;102174.31;;;8.82;78.85
71424;BME280;59240;51.370;-0.486;2023-04-09T07:31:49;102203.03;;;8.97;78.17
71424;BME280;59240;51.370;-0.486;2023-04-09T07:34:15;102155.09;;;8.60;78.75
71424;BME280;59240;51.370;-0.486;2023-04-09T07:36:42;102162.91;;;8.58;78.58
71424;BME280;59240;51.370;-0.486;2023-04-09T07:39:12;102142.03;;;8.50;79.16
71424;BME280;59240;51.370;-0.486;2023-04-09T07:41:55;102162.91;;;8.58;78.78
71424;BME280;59240;51.370;-0.486;2023-04-09T07:44:26;102177.63;;;8.59;77.92
71424;BME280;59240;51.370;-0.486;2023-04-09T07:46:59;102149.81;;;8.47;78.43
71424;BME280;59240;51.370;-0.486;2023-04-09T07:49:47;102134.94;;;8.33;78.00
71424;BME280;59240;51.370;-0.486;2023-04-09T07:52:22;102235.00;;;8.87;78.75
71424;BME280;59240;51.370;-0.486;2023-04-09T07:55:11;102155.00;;;8.44;80.52
71424;BME280;59240;51.370;-0.486;2023-04-09T07:57:42;102167.28;;;8.68;79.09
71424;BME280;59240;51.370;-0.486;2023-04-09T08:00:14;102157.00;;;8.85;78.70
71424;BME280;59240;51.370;-0.486;2023-04-09T08:02:43;102221.56;;;9.49;78.37
71424;BME280;59240;51.370;-0.486;2023-04-09T08:05:17;102177.31;;;9.44;78.58
71424;BME280;59240;51.370;-0.486;2023-04-09T08:07:50;102210.47;;;9.83;78.08
71424;BME280;59240;51.370;-0.486;2023-04-09T08:10:35;102150.56;;;9.73;78.48
71424;BME280;59240;51.370;-0.486;2023-04-09T08:13:06;102204.56;;;10.32;77.77
71424;BME280;59240;51.370;-0.486;2023-04-09T08:15:37;102203.72;;;10.53;77.46
71424;BME280;59240;51.370;-0.486;2023-04-09T08:18:07;102201.97;;;10.70;76.46
71424;BME280;59240;51.370;-0.486;2023-04-09T08:20:57;102188.06;;;10.83;76.65
71424;BME280;59240;51.370;-0.486;2023-04-09T08:23:31;102173.31;;;10.85;75.82
71424;BME280;59240;51.370;-0.486;2023-04-09T08:26:01;102128.13;;;10.69;75.56
71424;BME280;59240;51.370;-0.486;2023-04-09T08:28:38;102165.47;;;11.04;75.52
71424;BME280;59240;51.370;-0.486;2023-04-09T08:31:05;102178.50;;;11.13;75.59
71424;BME280;59240;51.370;-0.486;2023-04-09T08:33:40;102168.03;;;11.22;75.53
71424;BME280;59240;51.370;-0.486;2023-04-09T08:36:13;102135.88;;;11.20;75.55
71424;BME280;59240;51.370;-0.486;2023-04-09T08:38:50;102167.06;;;11.57;74.67
71424;BME280;59240;51.370;-0.486;2023-04-09T08:41:25;102165.25;;;11.74;74.40
71424;BME280;59240;51.370;-0.486;2023-04-09T08:43:57;102224.28;;;12.15;73.84
71424;BME280;59240;51.370;-0.486;2023-04-09T08:46:25;102153.03;;;11.88;73.92
71424;BME280;59240;51.370;-0.486;2023-04-09T08:49:00;102182.41;;;12.24;73.53
71424;BME280;59240;51.370;-0.486;2023-04-09T08:51:30;102217.91;;;12.55;73.50
71424;BME280;59240;51.370;-0.486;2023-04-09T08:53:58;102205.59;;;12.68;73.85
71424;BME280;59240;51.370;-0.486;2023-04-09T08:56:30;102166.34;;;12.73;72.96
71424;BME280;59240;51.370;-0.486;2023-04-09T08:58:57;102210.41;;;13.15;73.09
71424;BME280;59240;51.370;-0.486;2023-04-09T09:01:30;102159.09;;;13.02;70.90
71424;BME280;59240;51.370;-0.486;2023-04-09T09:04:07;102161.56;;;13.16;67.69
71424;BME280;59240;51.370;-0.486;2023-04-09T09:06:36;102117.25;;;13.02;71.13
71424;BME280;59240;51.370;-0.486;2023-04-09T09:09:15;102158.63;;;13.48;69.94
71424;BME280;59240;51.370;-0.486;2023-04-09T09:13:23;102123.53;;;13.63;69.99
71424;BME280;59240;51.370;-0.486;2023-04-09T09:16:30;102208.03;;;14.39;69.28
71424;BME280;59240;51.370;-0.486;2023-04-09T09:19:01;102138.47;;;14.18;70.53
71424;BME280;59240;51.370;-0.486;2023-04-09T09:21:36;102174.44;;;14.65;69.07
71424;BME280;59240;51.370;-0.486;2023-04-09T09:24:24;102092.59;;;14.48;66.43
71424;BME280;59240;51.370;-0.486;2023-04-09T09:26:54;102169.31;;;15.10;68.26
71424;BME280;59240;51.370;-0.486;2023-04-09T09:29:31;102098.81;;;14.89;66.52
71424;BME280;59240;51.370;-0.486;2023-04-09T09:32:19;102098.53;;;15.04;67.03
71424;BME280;59240;51.370;-0.486;2023-04-09T09:35:14;102194.34;;;15.73;65.29
71424;BME280;59240;51.370;-0.486;2023-04-09T09:38:55;102172.88;;;15.94;63.47
71424;BME280;59240;51.370;-0.486;2023-04-09T09:41:26;102158.47;;;16.10;64.49
71424;BME280;59240;51.370;-0.486;2023-04-09T09:44:47;102106.88;;;16.05;58.38
71424;BME280;59240;51.370;-0.486;2023-04-09T09:47:40;102089.88;;;16.21;60.72
71424;BME280;59240;51.370;-0.486;2023-04-09T09:51:38;102179.38;;;16.88;59.11
71424;BME280;59240;51.370;-0.486;2023-04-09T09:54:06;102118.63;;;16.63;60.05
71424;BME280;59240;51.370;-0.486;2023-04-09T09:56:44;102100.34;;;16.57;58.04
71424;BME280;59240;51.370;-0.486;2023-04-09T09:59:20;102079.56;;;16.48;56.69
71424;BME280;59240;51.370;-0.486;2023-04-09T10:02:18;102138.66;;;17.03;54.74
71424;BME280;59240;51.370;-0.486;2023-04-09T10:05:17;102157.03;;;17.37;57.95
71424;BME280;59240;51.370;-0.486;2023-04-09T10:08:25;102094.03;;;17.28;57.20
71424;BME280;59240;51.370;-0.486;2023-04-09T10:15:44;102134.22;;;17.95;51.99
71424;BME280;59240;51.370;-0.486;2023-04-09T10:18:27;102046.41;;;17.63;54.17
71424;BME280;59240;51.370;-0.486;2023-04-09T10:24:29;102063.91;;;18.22;53.43
71424;BME280;59240;51.370;-0.486;2023-04-09T10:27:12;102113.19;;;18.73;52.69
71424;BME280;59240;51.370;-0.486;2023-04-09T10:29:47;102079.59;;;18.78;52.98
71424;BME280;59240;51.370;-0.486;2023-04-09T10:32:37;102090.88;;;19.06;51.11
71424;BME280;59240;51.370;-0.486;2023-04-09T10:35:42;102032.19;;;18.98;50.29
71424;BME280;59240;51.370;-0.486;2023-04-09T10:38:44;102053.91;;;19.30;48.47
71424;BME280;59240;51.370;-0.486;2023-04-09T10:41:30;102076.00;;;19.51;47.25
71424;BME280;59240;51.370;-0.486;2023-04-09T10:44:26;102086.94;;;19.65;49.64
71424;BME280;59240;51.370;-0.486;2023-04-09T10:47:48;102082.63;;;19.62;45.43
71424;BME280;59240;51.370;-0.486;2023-04-09T10:50:36;102074.03;;;19.57;48.93
71424;BME280;59240;51.370;-0.486;2023-04-09T10:53:20;102019.06;;;19.42;47.00
71424;BME280;59240;51.370;-0.486;2023-04-09T10:55:58;102030.63;;;19.39;48.40
71424;BME280;59240;51.370;-0.486;2023-04-09T10:58:25;102049.28;;;19.35;47.61
71424;BME280;59240;51.370;-0.486;2023-04-09T11:01:22;102018.81;;;18.79;46.78
71424;BME280;59240;51.370;-0.486;2023-04-09T11:04:16;102045.00;;;18.61;45.82
71424;BME280;59240;51.370;-0.486;2023-04-09T11:10:51;102025.91;;;18.52;48.39
71424;BME280;59240;51.370;-0.486;2023-04-09T11:13:22;102040.28;;;18.70;48.02
71424;BME280;59240;51.370;-0.486;2023-04-09T11:16:07;101988.97;;;18.52;46.97
71424;BME280;59240;51.370;-0.486;2023-04-09T11:18:34;102040.25;;;19.19;48.04
71424;BME280;59240;51.370;-0.486;2023-04-09T11:21:03;101983.97;;;19.17;47.23
71424;BME280;59240;51.370;-0.486;2023-04-09T11:23:35;102065.00;;;19.85;46.20
71424;BME280;59240;51.370;-0.486;2023-04-09T11:26:35;102064.19;;;19.83;40.72
71424;BME280;59240;51.370;-0.486;2023-04-09T11:29:25;101997.13;;;19.63;45.50
71424;BME280;59240;51.370;-0.486;2023-04-09T11:31:58;102024.69;;;20.00;45.83
71424;BME280;59240;51.370;-0.486;2023-04-09T11:34:32;102016.00;;;20.18;45.28
71424;BME280;59240;51.370;-0.486;2023-04-09T11:37:13;101961.47;;;19.94;41.40
71424;BME280;59240;51.370;-0.486;2023-04-09T11:39:43;102026.00;;;20.32;43.48
71424;BME280;59240;51.370;-0.486;2023-04-09T11:42:18;102047.47;;;20.46;44.28
71424;BME280;59240;51.370;-0.486;2023-04-09T11:45:05;101949.81;;;19.78;44.60
71424;BME280;59240;51.370;-0.486;2023-04-09T11:48:01;102030.53;;;20.08;43.47
71424;BME280;59240;51.370;-0.486;2023-04-09T11:51:24;101967.59;;;19.74;43.78
71424;BME280;59240;51.370;-0.486;2023-04-09T11:57:59;101940.91;;;19.36;44.06
71424;BME280;59240;51.370;-0.486;2023-04-09T12:00:53;101946.19;;;19.36;42.78
71424;BME280;59240;51.370;-0.486;2023-04-09T12:03:43;101978.16;;;19.30;44.61
71424;BME280;59240;51.370;-0.486;2023-04-09T12:09:10;101959.78;;;18.82;45.32
71424;BME280;59240;51.370;-0.486;2023-04-09T12:12:23;101916.84;;;18.52;43.55
71424;BME280;59240;51.370;-0.486;2023-04-09T12:15:10;101910.28;;;18.40;44.01
71424;BME280;59240;51.370;-0.486;2023-04-09T12:18:34;101932.81;;;18.74;45.83
71424;BME280;59240;51.370;-0.486;2023-04-09T12:21:49;101996.28;;;19.63;45.18
71424;BME280;59240;51.370;-0.486;2023-04-09T12:24:24;101920.94;;;19.29;43.68
71424;BME280;59240;51.370;-0.486;2023-04-09T12:27:07;101963.88;;;19.34;43.49
71424;BME280;59240;51.370;-0.486;2023-04-09T12:29:50;101952.28;;;19.17;43.80
71424;BME280;59240;51.370;-0.486;2023-04-09T12:32:26;101930.69;;;19.05;43.22
71424;BME280;59240;51.370;-0.486;2023-04-09T12:35:14;101931.22;;;19.15;43.26
71424;BME280;59240;51.370;-0.486;2023-04-09T12:37:44;101995.41;;;19.39;43.65
71424;BME280;59240;51.370;-0.486;2023-04-09T12:40:12;101952.28;;;18.93;43.62
71424;BME280;59240;51.370;-0.486;2023-04-09T12:42:43;101972.16;;;19.03;44.02
71424;BME280;59240;51.370;-0.486;2023-04-09T12:48:03;101911.28;;;19.06;42.29
71424;BME280;59240;51.370;-0.486;2023-04-09T12:50:34;101892.69;;;19.09;43.17
71424;BME280;59240;51.370;-0.486;2023-04-09T12:53:03;101933.94;;;19.57;42.96
71424;BME280;59240;51.370;-0.486;2023-04-09T12:55:32;101928.00;;;19.73;42.42
71424;BME280;59240;51.370;-0.486;2023-04-09T12:58:02;101909.75;;;19.66;42.83
71424;BME280;59240;51.370;-0.486;2023-04-09T13:00:40;101918.53;;;19.67;41.02
71424;BME280;59240;51.370;-0.486;2023-04-09T13:03:10;101913.97;;;19.49;41.54
71424;BME280;59240;51.370;-0.486;2023-04-09T13:05:39;101926.66;;;19.62;42.47
71424;BME280;59240;51.370;-0.486;2023-04-09T13:08:16;101930.66;;;19.93;41.56
71424;BME280;59240;51.370;-0.486;2023-04-09T13:10:44;101938.06;;;20.05;41.62
71424;BME280;59240;51.370;-0.486;2023-04-09T13:13:13;101895.34;;;19.94;40.98
71424;BME280;59240;51.370;-0.486;2023-04-09T13:16:24;101891.38;;;20.04;41.04
71424;BME280;59240;51.370;-0.486;2023-04-09T13:18:51;101887.66;;;20.08;39.98
71424;BME280;59240;51.370;-0.486;2023-04-09T13:21:18;101897.84;;;20.17;39.67
71424;BME280;59240;51.370;-0.486;2023-04-09T13:23:45;101844.44;;;19.68;39.04
71424;BME280;59240;51.370;-0.486;2023-04-09T13:26:11;101929.47;;;20.00;39.55
71424;BME280;59240;51.370;-0.486;2023-04-09T13:28:46;101891.75;;;19.75;39.00
71424;BME280;59240;51.370;-0.486;2023-04-09T13:31:18;101878.03;;;19.66;39.99
71424;BME280;59240;51.370;-0.486;2023-04-09T13:33:44;101889.66;;;19.83;39.62
71424;BME280;59240;51.370;-0.486;2023-04-09T13:36:46;101881.78;;;19.81;38.60
71424;BME280;59240;51.370;-0.486;2023-04-09T13:40:59;101878.88;;;19.87;38.16
71424;BME280;59240;51.370;-0.486;2023-04-09T13:43:28;101897.28;;;20.11;39.77
71424;BME280;59240;51.370;-0.486;2023-04-09T13:45:56;101850.03;;;20.02;39.42
71424;BME280;59240;51.370;-0.486;2023-04-09T13:48:28;101812.06;;;19.84;38.82
71424;BME280;59240;51.370;-0.486;2023-04-09T13:51:00;101801.53;;;19.82;38.43
71424;BME280;59240;51.370;-0.486;2023-04-09T13:53:27;101842.28;;;20.17;38.44
71424;BME280;59240;51.370;-0.486;2023-04-09T13:56:48;101832.22;;;20.26;37.16
71424;BME280;59240;51.370;-0.486;2023-04-09T13:59:41;101880.69;;;20.65;36.53
71424;BME280;59240;51.370;-0.486;2023-04-09T14:02:11;101850.47;;;20.32;37.97
71424;BME280;59240;51.370;-0.486;2023-04-09T14:04:38;101869.59;;;20.57;38.66
71424;BME280;59240;51.370;-0.486;2023-04-09T14:07:05;101799.66;;;20.23;39.09
71424;BME280;59240;51.370;-0.486;2023-04-09T14:09:34;101784.88;;;20.19;38.17